createdAt,value
2022-10-17T00:00:45.659Z,101624.00
2022-10-17T00:03:13.661Z,101621.00
2022-10-17T00:05:46.204Z,101634.00
2022-10-17T00:08:14.427Z,101632.00
2022-10-17T00:10:41.201Z,101643.00
2022-10-17T00:13:08.620Z,101647.00
2022-10-17T00:15:35.696Z,101655.00
2022-10-17T00:18:02.823Z,101638.00
2022-10-17T00:20:30.483Z,101639.00
2022-10-17T00:22:57.426Z,101642.00
2022-10-17T00:25:24.269Z,101642.00
2022-10-17T00:27:51.106Z,101636.00
2022-10-17T00:30:18.280Z,101643.00
2022-10-17T00:32:45.137Z,101643.00
2022-10-17T00:35:12.046Z,101633.00
2022-10-17T00:37:38.803Z,101631.00
2022-10-17T00:40:06.935Z,101631.00
2022-10-17T00:42:34.432Z,101639.00
2022-10-17T00:45:07.617Z,101647.00
2022-10-17T00:47:35.533Z,101651.00
2022-10-17T00:50:03.561Z,101653.00
2022-10-17T00:52:31.216Z,101646.00
2022-10-17T00:55:14.162Z,101642.00
2022-10-17T00:57:41.401Z,101645.00
2022-10-17T01:00:09.975Z,101638.00
2022-10-17T01:02:40.219Z,101643.00
2022-10-17T01:05:07.744Z,101643.00
2022-10-17T01:07:37.239Z,101651.00
2022-10-17T01:10:06.337Z,101641.00
2022-10-17T01:12:39.268Z,101627.00
2022-10-17T01:15:14.211Z,101622.00
2022-10-17T01:18:07.425Z,101617.00
2022-10-17T01:21:02.432Z,101624.00
2022-10-17T01:23:57.403Z,101619.00
2022-10-17T01:26:57.764Z,101630.00
2022-10-17T01:29:30.593Z,101638.00
2022-10-17T01:32:18.828Z,101629.00
2022-10-17T01:34:53.857Z,101628.00
2022-10-17T01:37:27.964Z,101618.00
2022-10-17T01:40:11.704Z,101619.00
2022-10-17T01:42:51.392Z,101619.00
2022-10-17T01:45:34.388Z,101622.00
2022-10-17T01:48:13.034Z,101605.00
2022-10-17T01:50:44.240Z,101621.00
2022-10-17T01:53:16.387Z,101619.00
2022-10-17T01:55:45.674Z,101621.00
2022-10-17T01:58:19.054Z,101614.00
2022-10-17T02:00:46.716Z,101604.00
2022-10-17T02:03:17.297Z,101618.00
2022-10-17T02:05:44.344Z,101603.00
2022-10-17T02:08:11.868Z,101594.00
2022-10-17T02:11:05.874Z,101597.00
2022-10-17T02:13:47.936Z,101588.00
2022-10-17T02:16:40.148Z,101583.00
2022-10-17T02:19:38.909Z,101593.00
2022-10-17T02:22:35.148Z,101597.00
2022-10-17T02:25:08.049Z,101604.00
2022-10-17T02:27:37.767Z,101594.00
2022-10-17T02:30:23.653Z,101598.00
2022-10-17T02:32:58.064Z,101591.00
2022-10-17T02:35:27.421Z,101581.00
2022-10-17T02:37:55.201Z,101587.00
2022-10-17T02:40:22.877Z,101594.00
2022-10-17T02:42:50.440Z,101597.00
2022-10-17T02:45:19.171Z,101599.00
2022-10-17T02:48:04.786Z,101596.00
2022-10-17T02:50:48.926Z,101583.00
2022-10-17T02:53:24.166Z,101590.00
2022-10-17T02:55:55.929Z,101595.00
2022-10-17T02:58:29.395Z,101585.00
2022-10-17T03:00:56.567Z,101577.00
2022-10-17T03:03:28.925Z,101576.00
2022-10-17T03:05:55.823Z,101567.00
2022-10-17T03:08:22.900Z,101562.00
2022-10-17T03:10:49.945Z,101550.00
2022-10-17T03:13:17.163Z,101562.00
2022-10-17T03:15:44.616Z,101558.00
2022-10-17T03:18:11.494Z,101566.00
2022-10-17T03:20:38.263Z,101556.00
2022-10-17T03:23:05.018Z,101554.00
2022-10-17T03:25:31.811Z,101565.00
2022-10-17T03:28:03.152Z,101564.00
2022-10-17T03:30:30.066Z,101560.00
2022-10-17T03:33:00.513Z,101558.00
2022-10-17T03:36:16.094Z,101534.00
2022-10-17T03:38:43.984Z,101534.00
2022-10-17T03:41:11.494Z,101535.00
2022-10-17T03:43:39.669Z,101550.00
2022-10-17T03:46:07.237Z,101541.00
2022-10-17T03:48:34.255Z,101544.00
2022-10-17T03:51:08.550Z,101538.00
2022-10-17T03:53:35.483Z,101552.00
2022-10-17T03:56:22.656Z,101537.00
2022-10-17T03:58:49.452Z,101525.00
2022-10-17T04:01:18.277Z,101529.00
2022-10-17T04:03:49.170Z,101521.00
2022-10-17T04:06:15.974Z,101524.00
2022-10-17T04:08:46.042Z,101517.00
2022-10-17T04:11:16.327Z,101514.00
2022-10-17T04:13:43.964Z,101518.00
2022-10-17T04:16:13.368Z,101517.00
2022-10-17T04:18:40.186Z,101515.00
2022-10-17T04:21:08.179Z,101493.00
2022-10-17T04:23:35.481Z,101500.00
2022-10-17T04:26:03.503Z,101491.00
2022-10-17T04:28:31.454Z,101497.00
2022-10-17T04:31:11.682Z,101490.00
2022-10-17T04:33:38.930Z,101493.00
2022-10-17T04:36:17.078Z,101491.00
2022-10-17T04:38:44.328Z,101493.00
2022-10-17T04:41:16.282Z,101499.00
2022-10-17T04:43:45.610Z,101493.00
2022-10-17T04:46:15.701Z,101487.00
2022-10-17T04:48:42.934Z,101483.00
2022-10-17T04:51:15.370Z,101481.00
2022-10-17T04:53:43.146Z,101478.00
2022-10-17T04:56:15.029Z,101468.00
2022-10-17T04:58:43.070Z,101471.00
2022-10-17T05:01:12.897Z,101461.00
2022-10-17T05:03:40.211Z,101458.00
2022-10-17T05:06:08.662Z,101463.00
2022-10-17T05:08:35.619Z,101466.00
2022-10-17T05:11:03.023Z,101459.00
2022-10-17T05:13:29.925Z,101464.00
2022-10-17T05:16:00.895Z,101449.00
2022-10-17T05:18:28.846Z,101456.00
2022-10-17T05:20:55.789Z,101464.00
2022-10-17T05:23:22.630Z,101451.00
2022-10-17T05:25:54.376Z,101450.00
2022-10-17T05:28:21.427Z,101441.00
2022-10-17T05:30:48.288Z,101441.00
2022-10-17T05:33:15.291Z,101435.00
2022-10-17T05:35:42.167Z,101435.00
2022-10-17T05:38:09.073Z,101443.00
2022-10-17T05:40:35.863Z,101447.00
2022-10-17T05:43:02.801Z,101444.00
2022-10-17T05:45:29.603Z,101435.00
2022-10-17T05:47:56.391Z,101432.00
2022-10-17T05:50:24.297Z,101440.00
2022-10-17T05:52:55.185Z,101439.00
2022-10-17T05:55:22.830Z,101437.00
2022-10-17T05:57:52.649Z,101442.00
2022-10-17T06:00:20.477Z,101436.00
2022-10-17T06:02:48.358Z,101429.00
2022-10-17T06:05:15.320Z,101427.00
2022-10-17T06:07:49.304Z,101421.00
2022-10-17T06:10:17.284Z,101413.00
2022-10-17T06:12:50.354Z,101418.00
2022-10-17T06:15:17.264Z,101424.00
2022-10-17T06:17:44.091Z,101423.00
2022-10-17T06:20:11.060Z,101412.00
2022-10-17T06:22:37.838Z,101415.00
2022-10-17T06:25:05.179Z,101427.00
2022-10-17T06:27:32.056Z,101424.00
2022-10-17T06:29:58.835Z,101421.00
2022-10-17T06:32:25.643Z,101423.00
2022-10-17T06:34:52.455Z,101426.00
2022-10-17T06:37:19.257Z,101410.00
2022-10-17T06:39:46.158Z,101416.00
2022-10-17T06:42:12.909Z,101410.00
2022-10-17T06:44:41.028Z,101405.00
2022-10-17T06:47:07.935Z,101405.00
2022-10-17T06:49:34.730Z,101410.00
2022-10-17T06:52:01.671Z,101407.00
2022-10-17T06:54:28.680Z,101413.00
2022-10-17T06:56:56.182Z,101418.00
2022-10-17T06:59:23.066Z,101419.00
2022-10-17T07:01:49.857Z,101426.00
2022-10-17T07:04:16.687Z,101418.00
2022-10-17T07:06:43.988Z,101408.00
2022-10-17T07:10:00.846Z,101408.00
2022-10-17T07:12:02.712Z,101410.00
2022-10-17T07:14:32.183Z,101416.00
2022-10-17T07:17:01.798Z,101422.00
2022-10-17T07:19:28.646Z,101434.00
2022-10-17T07:21:55.557Z,101438.00
2022-10-17T07:24:22.354Z,101443.00
2022-10-17T07:26:49.290Z,101443.00
2022-10-17T07:29:16.335Z,101446.00
2022-10-17T07:31:47.930Z,101450.00
2022-10-17T07:34:14.706Z,101442.00
2022-10-17T07:36:41.557Z,101451.00
2022-10-17T07:39:08.516Z,101444.00
2022-10-17T07:41:35.362Z,101463.00
2022-10-17T07:44:02.268Z,101461.00
2022-10-17T07:46:29.252Z,101453.00
2022-10-17T07:48:56.047Z,101453.00
2022-10-17T07:51:23.052Z,101462.00
2022-10-17T07:53:49.890Z,101462.00
2022-10-17T07:56:17.285Z,101458.00
2022-10-17T07:58:44.256Z,101449.00
2022-10-17T08:01:15.542Z,101435.00
2022-10-17T08:03:48.564Z,101436.00
2022-10-17T08:06:15.518Z,101435.00
2022-10-17T08:08:42.615Z,101441.00
2022-10-17T08:11:11.560Z,101431.00
2022-10-17T08:13:38.758Z,101429.00
2022-10-17T08:16:07.964Z,101424.00
2022-10-17T08:18:36.047Z,101412.00
2022-10-17T08:21:06.335Z,101423.00
2022-10-17T08:23:33.114Z,101410.00
2022-10-17T08:26:01.159Z,101398.00
2022-10-17T08:28:28.546Z,101395.00
2022-10-17T08:31:07.346Z,101411.00
2022-10-17T08:33:34.399Z,101414.00
2022-10-17T08:36:02.247Z,101408.00
2022-10-17T08:38:32.108Z,101402.00
2022-10-17T08:41:06.291Z,101403.00
2022-10-17T08:43:55.414Z,101415.00
2022-10-17T08:46:22.470Z,101433.00
2022-10-17T08:48:51.387Z,101432.00
2022-10-17T08:51:24.525Z,101412.00
2022-10-17T08:54:22.356Z,101409.00
2022-10-17T08:56:51.143Z,101392.00
2022-10-17T08:59:36.498Z,101398.00
2022-10-17T09:02:03.640Z,101387.00
2022-10-17T09:04:45.231Z,101375.00
2022-10-17T09:07:21.238Z,101366.00
2022-10-17T09:10:18.567Z,101374.00
2022-10-17T09:13:30.720Z,101382.00
2022-10-17T09:16:07.648Z,101378.00
2022-10-17T09:18:41.362Z,101372.00
2022-10-17T09:21:25.225Z,101380.00
2022-10-17T09:24:09.085Z,101378.00
2022-10-17T09:26:39.359Z,101378.00
2022-10-17T09:29:37.924Z,101385.00
2022-10-17T09:32:17.614Z,101383.00
2022-10-17T09:34:47.199Z,101389.00
2022-10-17T09:37:16.008Z,101392.00
2022-10-17T09:39:46.784Z,101380.00
2022-10-17T09:42:19.399Z,101388.00
2022-10-17T09:45:25.961Z,101399.00
2022-10-17T09:48:01.009Z,101407.00
2022-10-17T09:50:34.942Z,101425.00
2022-10-17T09:53:12.613Z,101434.00
2022-10-17T09:55:49.015Z,101420.00
2022-10-17T09:58:15.771Z,101423.00
2022-10-17T10:00:49.511Z,101410.00
2022-10-17T10:03:25.576Z,101404.00
2022-10-17T10:06:17.403Z,101413.00
2022-10-17T10:08:55.560Z,101416.00
2022-10-17T10:11:46.828Z,101417.00
2022-10-17T10:14:33.575Z,101416.00
2022-10-17T10:17:03.797Z,101425.00
2022-10-17T10:19:36.347Z,101432.00
2022-10-17T10:22:05.981Z,101436.00
2022-10-17T10:24:32.996Z,101437.00
2022-10-17T10:27:02.371Z,101425.00
2022-10-17T10:29:34.309Z,101421.00
2022-10-17T10:32:23.492Z,101406.00
2022-10-17T10:34:54.169Z,101410.00
2022-10-17T10:37:35.465Z,101423.00
2022-10-17T10:40:06.863Z,101426.00
2022-10-17T10:42:40.691Z,101431.00
2022-10-17T10:45:48.019Z,101430.00
2022-10-17T10:48:27.683Z,101431.00
2022-10-17T10:51:05.369Z,101437.00
2022-10-17T10:53:47.299Z,101441.00
2022-10-17T10:56:22.752Z,101440.00
2022-10-17T10:58:49.421Z,101427.00
2022-10-17T11:01:23.779Z,101416.00
2022-10-17T11:04:13.817Z,101423.00
2022-10-17T11:06:45.205Z,101431.00
2022-10-17T11:09:33.958Z,101426.00
2022-10-17T11:12:53.251Z,101426.00
2022-10-17T11:15:52.652Z,101439.00
2022-10-17T11:18:24.913Z,101420.00
2022-10-17T11:21:03.582Z,101418.00
2022-10-17T11:23:47.403Z,101432.00
2022-10-17T11:26:27.556Z,101422.00
2022-10-17T11:28:58.902Z,101427.00
2022-10-17T11:31:29.740Z,101434.00
2022-10-17T11:34:20.525Z,101437.00
2022-10-17T11:36:54.775Z,101462.00
2022-10-17T11:39:50.145Z,101448.00
2022-10-17T11:42:34.012Z,101464.00
2022-10-17T11:45:14.155Z,101456.00
2022-10-17T11:47:54.708Z,101447.00
2022-10-17T11:53:23.025Z,101454.00
2022-10-17T11:56:04.366Z,101459.00
2022-10-17T11:58:42.774Z,101467.00
2022-10-17T12:01:36.331Z,101474.00
2022-10-17T12:04:31.102Z,101474.00
2022-10-17T12:07:22.296Z,101466.00
2022-10-17T12:09:57.261Z,101464.00
2022-10-17T12:12:32.471Z,101463.00
2022-10-17T12:15:11.774Z,101478.00
2022-10-17T12:17:55.244Z,101474.00
2022-10-17T12:20:24.860Z,101483.00
2022-10-17T12:23:20.733Z,101457.00
2022-10-17T12:25:52.160Z,101449.00
2022-10-17T12:28:23.747Z,101452.00
2022-10-17T12:31:01.477Z,101463.00
2022-10-17T12:33:37.420Z,101450.00
2022-10-17T12:36:22.628Z,101456.00
2022-10-17T12:39:06.533Z,101441.00
2022-10-17T12:41:44.453Z,101447.00
2022-10-17T12:44:15.154Z,101446.00
2022-10-17T12:47:03.659Z,101443.00
2022-10-17T12:50:19.416Z,101438.00
2022-10-17T12:52:58.638Z,101437.00
2022-10-17T12:55:35.157Z,101434.00
2022-10-17T12:58:05.197Z,101459.00
2022-10-17T13:01:22.463Z,101485.00
2022-10-17T13:03:45.733Z,101516.00
2022-10-17T13:06:22.815Z,101532.00
2022-10-17T13:09:01.039Z,101525.00
2022-10-17T13:11:33.398Z,101486.00
2022-10-17T13:14:16.994Z,101449.00
2022-10-17T13:17:30.686Z,101432.00
2022-10-17T13:19:57.864Z,101427.00
2022-10-17T13:22:42.938Z,101415.00
2022-10-17T13:25:21.895Z,101420.00
2022-10-17T13:27:55.894Z,101438.00
2022-10-17T13:30:32.067Z,101459.00
2022-10-17T13:33:06.798Z,101474.00
2022-10-17T13:35:55.357Z,101497.00
2022-10-17T13:38:28.520Z,101507.00
2022-10-17T13:41:10.801Z,101510.00
2022-10-17T13:43:45.021Z,101501.00
2022-10-17T13:46:39.917Z,101493.00
2022-10-17T13:49:22.198Z,101477.00
2022-10-17T13:52:10.794Z,101471.00
2022-10-17T13:54:52.355Z,101470.00
2022-10-17T13:57:21.564Z,101453.00
2022-10-17T13:59:59.701Z,101457.00
2022-10-17T14:02:29.043Z,101434.00
2022-10-17T14:05:20.043Z,101433.00
2022-10-17T14:08:11.994Z,101433.00
2022-10-17T14:10:42.179Z,101435.00
2022-10-17T14:13:35.573Z,101442.00
2022-10-17T14:16:14.661Z,101438.00
2022-10-17T14:18:44.477Z,101438.00
2022-10-17T14:24:23.575Z,101460.00
2022-10-17T14:26:52.719Z,101474.00
2022-10-17T14:29:30.398Z,101484.00
2022-10-17T14:32:03.967Z,101504.00
2022-10-17T14:34:36.383Z,101504.00
2022-10-17T14:37:12.709Z,101508.00
2022-10-17T14:39:39.607Z,101512.00
2022-10-17T14:42:06.507Z,101511.00
2022-10-17T14:44:35.064Z,101511.00
2022-10-17T14:47:30.757Z,101512.00
2022-10-17T14:50:20.223Z,101519.00
2022-10-17T14:53:12.518Z,101510.00
2022-10-17T14:55:40.920Z,101517.00
2022-10-17T14:58:37.866Z,101524.00
2022-10-17T15:01:04.816Z,101529.00
2022-10-17T15:03:55.081Z,101532.00
2022-10-17T15:06:43.636Z,101532.00
2022-10-17T15:09:11.836Z,101538.00
2022-10-17T15:11:38.975Z,101538.00
2022-10-17T15:14:05.746Z,101547.00
2022-10-17T15:16:33.890Z,101549.00
2022-10-17T15:19:01.851Z,101550.00
2022-10-17T15:21:40.613Z,101553.00
2022-10-17T15:24:10.176Z,101548.00
2022-10-17T15:26:37.049Z,101558.00
2022-10-17T15:29:04.344Z,101561.00
2022-10-17T15:31:31.505Z,101556.00
2022-10-17T15:33:58.470Z,101565.00
2022-10-17T15:36:34.146Z,101555.00
2022-10-17T15:39:01.874Z,101558.00
2022-10-17T15:41:32.603Z,101576.00
2022-10-17T15:43:59.710Z,101561.00
2022-10-17T15:46:29.663Z,101563.00
2022-10-17T15:49:01.237Z,101562.00
2022-10-17T15:51:28.187Z,101565.00
2022-10-17T15:53:54.962Z,101568.00
2022-10-17T15:56:37.158Z,101578.00
2022-10-17T15:59:27.800Z,101582.00
2022-10-17T16:01:54.611Z,101586.00
2022-10-17T16:04:23.948Z,101575.00
2022-10-17T16:06:51.329Z,101579.00
2022-10-17T16:09:18.397Z,101589.00
2022-10-17T16:11:45.465Z,101592.00
2022-10-17T16:14:18.194Z,101596.00
2022-10-17T16:16:50.547Z,101598.00
2022-10-17T16:19:20.886Z,101595.00
2022-10-17T16:21:49.832Z,101592.00
2022-10-17T16:24:17.756Z,101605.00
2022-10-17T16:28:02.154Z,101602.00
2022-10-17T16:30:30.944Z,101596.00
2022-10-17T16:32:57.824Z,101597.00
2022-10-17T16:35:33.077Z,101605.00
2022-10-17T16:38:05.515Z,101598.00
2022-10-17T16:40:32.511Z,101599.00
2022-10-17T16:43:05.668Z,101600.00
2022-10-17T16:45:32.621Z,101614.00
2022-10-17T16:47:59.432Z,101628.00
2022-10-17T16:50:30.369Z,101634.00
2022-10-17T16:52:57.178Z,101633.00
2022-10-17T16:55:24.458Z,101637.00
2022-10-17T16:57:51.238Z,101633.00
2022-10-17T17:00:18.124Z,101650.00
2022-10-17T17:02:47.554Z,101643.00
2022-10-17T17:05:14.779Z,101648.00
2022-10-17T17:07:41.676Z,101657.00
2022-10-17T17:10:09.297Z,101661.00
2022-10-17T17:12:36.733Z,101663.00
2022-10-17T17:15:04.122Z,101653.00
2022-10-17T17:17:48.756Z,101649.00
2022-10-17T17:20:17.354Z,101652.00
2022-10-17T17:22:44.665Z,101664.00
2022-10-17T17:25:43.566Z,101675.00
2022-10-17T17:28:10.844Z,101676.00
2022-10-17T17:30:41.034Z,101680.00
2022-10-17T17:33:07.994Z,101682.00
2022-10-17T17:35:34.828Z,101689.00
2022-10-17T17:38:03.013Z,101687.00
2022-10-17T17:40:30.977Z,101696.00
2022-10-17T17:48:09.007Z,101704.00
2022-10-17T17:50:39.986Z,101704.00
2022-10-17T17:53:07.909Z,101703.00
2022-10-17T17:55:35.343Z,101696.00
2022-10-17T17:58:02.514Z,101703.00
2022-10-17T18:00:29.624Z,101703.00
2022-10-17T18:02:56.956Z,101710.00
2022-10-17T18:05:23.835Z,101708.00
2022-10-17T18:07:50.630Z,101709.00
2022-10-17T18:10:17.586Z,101704.00
2022-10-17T18:12:44.730Z,101705.00
2022-10-17T18:15:11.799Z,101704.00
2022-10-17T18:17:38.972Z,101708.00
2022-10-17T18:20:08.860Z,101713.00
2022-10-17T18:22:36.128Z,101719.00
2022-10-17T18:25:03.175Z,101718.00
2022-10-17T18:27:29.956Z,101723.00
2022-10-17T18:29:56.718Z,101725.00
2022-10-17T18:32:23.538Z,101729.00
2022-10-17T18:34:50.344Z,101732.00
2022-10-17T18:37:17.141Z,101744.00
2022-10-17T18:39:44.036Z,101739.00
2022-10-17T18:42:11.709Z,101742.00
2022-10-17T18:44:38.471Z,101737.00
2022-10-17T18:47:05.230Z,101736.00
2022-10-17T18:49:31.999Z,101739.00
2022-10-17T18:51:59.797Z,101737.00
2022-10-17T18:54:26.754Z,101756.00
2022-10-17T18:56:54.668Z,101749.00
2022-10-17T18:59:21.642Z,101747.00
2022-10-17T19:01:49.001Z,101760.00
2022-10-17T19:04:16.243Z,101748.00
2022-10-17T19:06:43.145Z,101752.00
2022-10-17T19:09:11.381Z,101747.00
2022-10-17T19:11:38.699Z,101750.00
2022-10-17T19:14:13.401Z,101743.00
2022-10-17T19:16:43.372Z,101745.00
2022-10-17T19:19:24.679Z,101744.00
2022-10-17T19:21:51.994Z,101746.00
2022-10-17T19:24:25.407Z,101755.00
2022-10-17T19:26:54.124Z,101767.00
2022-10-17T19:29:23.187Z,101769.00
2022-10-17T19:31:50.325Z,101764.00
2022-10-17T19:34:17.967Z,101766.00
2022-10-17T19:36:45.432Z,101777.00
2022-10-17T19:39:15.514Z,101782.00
2022-10-17T19:41:43.830Z,101791.00
2022-10-17T19:44:10.644Z,101803.00
2022-10-17T19:46:38.344Z,101802.00
2022-10-17T19:49:06.628Z,101794.00
2022-10-17T19:51:33.672Z,101803.00
2022-10-17T19:54:00.892Z,101807.00
2022-10-17T19:56:32.672Z,101798.00
2022-10-17T19:58:59.943Z,101798.00
2022-10-17T20:01:29.636Z,101804.00
2022-10-17T20:03:56.778Z,101813.00
2022-10-17T20:06:24.405Z,101809.00
2022-10-17T20:08:51.673Z,101813.00
2022-10-17T20:11:24.284Z,101822.00
2022-10-17T20:13:51.669Z,101820.00
2022-10-17T20:16:23.771Z,101817.00
2022-10-17T20:18:52.027Z,101823.00
2022-10-17T20:21:22.327Z,101823.00
2022-10-17T20:23:49.520Z,101826.00
2022-10-17T20:26:37.611Z,101826.00
2022-10-17T20:29:11.032Z,101830.00
2022-10-17T20:31:39.045Z,101834.00
2022-10-17T20:34:06.089Z,101828.00
2022-10-17T20:36:36.886Z,101840.00
2022-10-17T20:39:04.788Z,101841.00
2022-10-17T20:41:31.551Z,101854.00
2022-10-17T20:43:58.403Z,101848.00
2022-10-17T20:46:45.221Z,101845.00
2022-10-17T20:49:15.382Z,101865.00
2022-10-17T20:51:42.262Z,101871.00
2022-10-17T20:54:09.143Z,101878.00
2022-10-17T20:56:36.340Z,101888.00
2022-10-17T20:59:10.209Z,101885.00
2022-10-17T21:01:36.993Z,101890.00
2022-10-17T21:04:26.986Z,101884.00
2022-10-17T21:06:52.104Z,101889.00
2022-10-17T21:09:19.113Z,101887.00
2022-10-17T21:11:46.115Z,101905.00
2022-10-17T21:14:12.968Z,101897.00
2022-10-17T21:16:41.236Z,101899.00
2022-10-17T21:19:08.214Z,101893.00
2022-10-17T21:21:37.079Z,101900.00
2022-10-17T21:24:12.973Z,101904.00
2022-10-17T21:26:41.754Z,101893.00
2022-10-17T21:29:09.270Z,101889.00
2022-10-17T21:31:38.087Z,101880.00
2022-10-17T21:34:07.332Z,101877.00
2022-10-17T21:36:34.339Z,101876.00
2022-10-17T21:39:01.272Z,101889.00
2022-10-17T21:41:31.741Z,101892.00
2022-10-17T21:44:01.093Z,101896.00
2022-10-17T21:46:28.609Z,101898.00
2022-10-17T21:48:55.592Z,101894.00
2022-10-17T21:51:24.551Z,101893.00
2022-10-17T21:53:52.439Z,101900.00
2022-10-17T21:56:21.730Z,101895.00
2022-10-17T21:58:48.947Z,101894.00
2022-10-17T22:01:21.989Z,101912.00
2022-10-17T22:03:51.633Z,101908.00
2022-10-17T22:09:11.394Z,101906.00
2022-10-17T22:11:45.455Z,101906.00
2022-10-17T22:14:16.840Z,101900.00
2022-10-17T22:16:47.491Z,101904.00
2022-10-17T22:19:19.816Z,101905.00
2022-10-17T22:21:47.502Z,101909.00
2022-10-17T22:26:49.483Z,101915.00
2022-10-17T22:29:17.552Z,101907.00
2022-10-17T22:31:46.736Z,101913.00
2022-10-17T22:34:16.152Z,101909.00
2022-10-17T22:36:45.526Z,101917.00
2022-10-17T22:39:16.216Z,101913.00
2022-10-17T22:41:42.949Z,101924.00
2022-10-17T22:44:09.846Z,101918.00
2022-10-17T22:46:36.582Z,101923.00
2022-10-17T22:49:03.488Z,101921.00
2022-10-17T22:51:30.364Z,101928.00
2022-10-17T22:53:57.188Z,101925.00
2022-10-17T22:56:24.066Z,101924.00
2022-10-17T22:58:51.174Z,101924.00
2022-10-17T23:01:24.191Z,101921.00
2022-10-17T23:03:51.951Z,101923.00
2022-10-17T23:06:19.210Z,101918.00
2022-10-17T23:08:46.113Z,101931.00
2022-10-17T23:11:13.365Z,101911.00
2022-10-17T23:13:40.881Z,101928.00
2022-10-17T23:16:08.720Z,101924.00
2022-10-17T23:18:36.652Z,101934.00
2022-10-17T23:21:03.897Z,101942.00
2022-10-17T23:23:30.719Z,101939.00
2022-10-17T23:26:07.324Z,101926.00
2022-10-17T23:28:35.654Z,101926.00
2022-10-17T23:31:14.570Z,101930.00
2022-10-17T23:33:41.672Z,101931.00
2022-10-17T23:36:10.529Z,101934.00
2022-10-17T23:38:37.701Z,101929.00
2022-10-17T23:41:04.469Z,101936.00
2022-10-17T23:43:31.706Z,101936.00
2022-10-17T23:45:58.635Z,101934.00
2022-10-17T23:48:25.579Z,101935.00
2022-10-17T23:50:52.402Z,101922.00
2022-10-17T23:53:19.258Z,101934.00
2022-10-17T23:55:46.091Z,101936.00
2022-10-17T23:58:12.881Z,101934.00
